createdAt,value
2017-12-30T00:00:31.144Z,0
2017-12-30T00:01:11.876Z,0
2017-12-30T00:01:52.656Z,0
2017-12-30T00:02:33.562Z,0
2017-12-30T00:03:14.994Z,0
2017-12-30T00:03:55.585Z,0
2017-12-30T00:04:35.951Z,0
2017-12-30T00:05:16.630Z,0
2017-12-30T00:05:57.644Z,0
2017-12-30T00:06:38.018Z,0
2017-12-30T00:07:18.637Z,0
2017-12-30T00:07:58.782Z,0
2017-12-30T00:08:39.792Z,0
2017-12-30T00:09:20.343Z,0
2017-12-30T00:10:00.722Z,0
2017-12-30T00:10:41.589Z,0
2017-12-30T00:11:22.508Z,0
2017-12-30T00:12:03.633Z,0
2017-12-30T00:12:44.167Z,0
2017-12-30T00:13:24.481Z,0
2017-12-30T00:14:05.065Z,0
2017-12-30T00:14:45.508Z,0
2017-12-30T00:15:26.343Z,0
2017-12-30T00:16:06.514Z,0
2017-12-30T00:16:47.018Z,0
2017-12-30T00:17:27.828Z,0
2017-12-30T00:18:08.144Z,0
2017-12-30T00:18:48.937Z,0
2017-12-30T00:19:29.359Z,0
2017-12-30T00:20:09.860Z,0
2017-12-30T00:20:50.213Z,0
2017-12-30T00:21:30.755Z,0
2017-12-30T00:22:11.722Z,0
2017-12-30T00:22:52.579Z,0
2017-12-30T00:23:33.166Z,0
2017-12-30T00:24:13.502Z,0
2017-12-30T00:24:53.998Z,0
2017-12-30T00:25:34.783Z,0
2017-12-30T00:26:15.174Z,0
2017-12-30T00:26:55.984Z,0
2017-12-30T00:27:36.395Z,0
2017-12-30T00:28:17.019Z,0
2017-12-30T00:28:57.393Z,0
2017-12-30T00:29:38.738Z,0
2017-12-30T00:30:19.077Z,0
2017-12-30T00:30:59.437Z,0
2017-12-30T00:31:40.405Z,0
2017-12-30T00:32:21.357Z,0
2017-12-30T00:33:02.256Z,0
2017-12-30T00:33:43.426Z,0
2017-12-30T00:34:24.614Z,0
2017-12-30T00:35:07.590Z,0
2017-12-30T00:35:48.213Z,0
2017-12-30T00:36:29.220Z,0
2017-12-30T00:37:09.751Z,0
2017-12-30T00:39:10.228Z,0
2017-12-30T00:39:51.144Z,0
2017-12-30T00:40:31.964Z,0
2017-12-30T00:41:12.703Z,0
2017-12-30T00:41:53.091Z,0
2017-12-30T00:42:33.998Z,0
2017-12-30T00:43:14.999Z,0
2017-12-30T00:43:55.945Z,0
2017-12-30T00:44:36.227Z,0
2017-12-30T00:45:17.035Z,0
2017-12-30T00:45:57.872Z,0
2017-12-30T00:46:39.016Z,0
2017-12-30T00:47:19.629Z,0
2017-12-30T00:48:00.298Z,0
2017-12-30T00:48:40.936Z,0
2017-12-30T00:49:21.518Z,0
2017-12-30T00:50:02.026Z,0
2017-12-30T00:50:43.388Z,0
2017-12-30T00:51:24.237Z,0
2017-12-30T00:52:05.539Z,0
2017-12-30T00:52:46.026Z,0
2017-12-30T00:53:26.354Z,0
2017-12-30T00:54:06.897Z,0
2017-12-30T00:54:48.434Z,0
2017-12-30T00:55:28.705Z,0
2017-12-30T00:56:09.657Z,0
2017-12-30T00:56:50.220Z,0
2017-12-30T00:57:30.795Z,0
2017-12-30T00:58:11.798Z,0
2017-12-30T00:58:52.718Z,0
2017-12-30T00:59:34.349Z,0
2017-12-30T01:00:15.238Z,0
2017-12-30T01:00:56.327Z,0
2017-12-30T01:01:39.187Z,0
2017-12-30T01:02:18.018Z,0
2017-12-30T01:02:58.585Z,0
2017-12-30T01:03:42.638Z,0
2017-12-30T01:04:23.660Z,0
2017-12-30T01:05:04.834Z,0
2017-12-30T01:05:45.555Z,0
2017-12-30T01:06:28.381Z,0
2017-12-30T01:07:09.140Z,0
2017-12-30T01:07:50.351Z,0
2017-12-30T01:08:31.472Z,0
2017-12-30T01:09:11.890Z,0
2017-12-30T01:09:53.299Z,0
2017-12-30T01:10:36.044Z,0
2017-12-30T01:11:17.309Z,0
2017-12-30T01:11:57.939Z,0
2017-12-30T01:12:38.658Z,0
2017-12-30T01:13:20.303Z,0
2017-12-30T01:14:00.663Z,0
2017-12-30T01:14:41.811Z,0
2017-12-30T01:15:23.207Z,0
2017-12-30T01:16:03.613Z,0
2017-12-30T01:16:44.127Z,0
2017-12-30T01:17:24.668Z,0
2017-12-30T01:18:05.060Z,0
2017-12-30T01:18:45.762Z,0
2017-12-30T01:19:26.510Z,0
2017-12-30T01:20:07.229Z,0
2017-12-30T01:20:47.702Z,0
2017-12-30T01:21:28.196Z,0
2017-12-30T01:22:08.997Z,0
2017-12-30T01:22:49.016Z,0
2017-12-30T01:23:29.740Z,0
2017-12-30T01:24:11.330Z,0
2017-12-30T01:24:51.274Z,0
2017-12-30T01:25:32.020Z,0
2017-12-30T01:26:13.782Z,0
2017-12-30T01:26:54.939Z,0
2017-12-30T01:27:35.004Z,0
2017-12-30T01:28:15.332Z,0
2017-12-30T01:28:56.134Z,0
2017-12-30T01:29:36.708Z,0
2017-12-30T01:30:17.276Z,0
2017-12-30T01:30:58.429Z,0
2017-12-30T01:31:38.914Z,0
2017-12-30T01:32:19.372Z,0
2017-12-30T01:33:00.627Z,0
2017-12-30T01:33:41.865Z,0
2017-12-30T01:34:22.283Z,0
2017-12-30T01:35:02.610Z,0
2017-12-30T01:35:43.823Z,0
2017-12-30T01:36:24.822Z,0
2017-12-30T01:37:05.169Z,0
2017-12-30T01:37:45.620Z,0
2017-12-30T01:38:25.970Z,0
2017-12-30T01:39:06.408Z,0
2017-12-30T01:39:46.773Z,0
2017-12-30T01:40:27.378Z,0
2017-12-30T01:41:07.575Z,0
2017-12-30T01:41:48.739Z,0
2017-12-30T01:42:29.458Z,0
2017-12-30T01:43:09.805Z,0
2017-12-30T01:43:50.561Z,0
2017-12-30T01:44:30.861Z,0
2017-12-30T01:45:11.684Z,0
2017-12-30T01:45:52.322Z,0
2017-12-30T01:46:32.708Z,0
2017-12-30T01:47:13.059Z,0
2017-12-30T01:47:53.887Z,0
2017-12-30T01:48:34.441Z,0
2017-12-30T01:49:14.852Z,0
2017-12-30T01:49:55.241Z,0
2017-12-30T01:50:35.739Z,0
2017-12-30T01:51:16.818Z,0
2017-12-30T01:51:57.205Z,0
2017-12-30T01:52:37.673Z,0
2017-12-30T01:53:19.351Z,0
2017-12-30T01:53:59.994Z,0
2017-12-30T01:54:40.933Z,0
2017-12-30T01:55:21.979Z,0
2017-12-30T01:56:02.125Z,0
2017-12-30T01:56:42.618Z,0
2017-12-30T01:57:23.839Z,0
2017-12-30T01:58:05.823Z,0
2017-12-30T01:58:46.482Z,0
2017-12-30T01:59:26.970Z,0
2017-12-30T02:00:08.072Z,0
2017-12-30T02:00:48.207Z,0
2017-12-30T02:01:31.254Z,0
2017-12-30T02:02:11.747Z,0
2017-12-30T02:02:52.180Z,0
2017-12-30T02:03:33.039Z,0
2017-12-30T02:04:13.361Z,0
2017-12-30T02:04:54.501Z,0
2017-12-30T02:05:36.282Z,0
2017-12-30T02:06:16.640Z,0
2017-12-30T02:06:57.068Z,0
2017-12-30T02:07:37.512Z,0
2017-12-30T02:08:18.279Z,0
2017-12-30T02:08:58.423Z,0
2017-12-30T02:09:38.868Z,0
2017-12-30T02:10:19.694Z,0
2017-12-30T02:11:01.497Z,0
2017-12-30T02:14:38.131Z,0
2017-12-30T02:15:23.430Z,0
2017-12-30T02:16:03.710Z,0
2017-12-30T02:16:44.095Z,0
2017-12-30T02:17:28.830Z,0
2017-12-30T02:18:08.520Z,0
2017-12-30T02:18:49.013Z,0
2017-12-30T02:19:29.464Z,0
2017-12-30T02:20:10.768Z,0
2017-12-30T02:20:53.175Z,0
2017-12-30T02:21:33.340Z,0
2017-12-30T02:22:13.174Z,0
2017-12-30T02:22:53.495Z,0
2017-12-30T02:23:34.112Z,0
2017-12-30T02:24:14.589Z,0
2017-12-30T02:24:54.867Z,0
2017-12-30T02:25:35.450Z,0
2017-12-30T02:26:15.769Z,0
2017-12-30T02:26:56.169Z,0
2017-12-30T02:27:37.148Z,0
2017-12-30T02:28:18.585Z,0
2017-12-30T02:29:00.131Z,0
2017-12-30T02:29:40.319Z,0
2017-12-30T02:30:20.501Z,0
2017-12-30T02:31:01.395Z,0
2017-12-30T02:31:41.671Z,0
2017-12-30T02:32:22.008Z,0
2017-12-30T02:33:02.937Z,0
2017-12-30T02:33:43.303Z,0
2017-12-30T02:34:23.725Z,0
2017-12-30T02:35:04.049Z,0
2017-12-30T02:35:44.692Z,0
2017-12-30T02:36:25.060Z,0
2017-12-30T02:37:05.483Z,0
2017-12-30T02:37:46.015Z,0
2017-12-30T02:38:26.418Z,0
2017-12-30T02:39:06.723Z,0
2017-12-30T02:39:47.101Z,0
2017-12-30T02:40:28.210Z,0
2017-12-30T02:41:08.619Z,0
2017-12-30T02:41:49.001Z,0
2017-12-30T02:42:29.465Z,0
2017-12-30T02:43:10.086Z,0
2017-12-30T02:43:50.430Z,0
2017-12-30T02:44:33.376Z,0
2017-12-30T02:45:13.748Z,0
2017-12-30T02:45:54.603Z,0
2017-12-30T02:46:36.210Z,0
2017-12-30T02:47:16.543Z,0
2017-12-30T02:47:56.989Z,0
2017-12-30T02:48:37.416Z,0
2017-12-30T02:49:18.249Z,0
2017-12-30T02:49:58.690Z,0
2017-12-30T02:50:39.227Z,0
2017-12-30T02:51:19.561Z,0
2017-12-30T02:52:00.866Z,0
2017-12-30T02:52:41.219Z,0
2017-12-30T02:53:21.797Z,0
2017-12-30T02:54:03.276Z,0
2017-12-30T02:54:44.130Z,0
2017-12-30T02:55:24.814Z,0
2017-12-30T02:56:05.189Z,0
2017-12-30T02:56:48.603Z,0
2017-12-30T02:57:28.111Z,0
2017-12-30T02:58:09.735Z,0
2017-12-30T02:58:50.160Z,0
2017-12-30T02:59:31.025Z,0
2017-12-30T03:00:11.489Z,0
2017-12-30T03:00:52.144Z,0
2017-12-30T03:01:32.266Z,0
2017-12-30T03:02:12.667Z,0
2017-12-30T03:02:53.346Z,0
2017-12-30T03:03:34.651Z,0
2017-12-30T03:04:15.662Z,0
2017-12-30T03:04:56.309Z,0
2017-12-30T03:05:36.828Z,0
2017-12-30T03:06:17.168Z,0
2017-12-30T03:06:58.034Z,0
2017-12-30T03:07:38.755Z,0
2017-12-30T03:08:19.179Z,0
2017-12-30T03:08:59.558Z,0
2017-12-30T03:09:39.977Z,0
2017-12-30T03:10:20.522Z,0
2017-12-30T03:11:01.134Z,0
2017-12-30T03:11:41.506Z,0
2017-12-30T03:12:22.212Z,0
2017-12-30T03:13:02.625Z,0
2017-12-30T03:13:43.199Z,0
2017-12-30T03:14:26.280Z,0
2017-12-30T03:15:07.813Z,0
2017-12-30T03:15:48.020Z,0
2017-12-30T03:16:29.023Z,0
2017-12-30T03:17:10.108Z,0
2017-12-30T03:17:49.976Z,0
2017-12-30T03:18:30.658Z,0
2017-12-30T03:19:11.131Z,0
2017-12-30T03:19:52.173Z,0
2017-12-30T03:20:32.537Z,0
2017-12-30T03:21:14.032Z,0
2017-12-30T03:21:53.951Z,0
2017-12-30T03:22:34.468Z,0
2017-12-30T03:23:14.857Z,0
2017-12-30T03:23:56.747Z,0
2017-12-30T03:24:39.192Z,0
2017-12-30T03:26:45.263Z,0
2017-12-30T03:27:27.690Z,0
2017-12-30T03:28:08.376Z,0
2017-12-30T03:28:49.402Z,0
2017-12-30T03:29:32.195Z,0
2017-12-30T03:30:12.986Z,0
2017-12-30T03:30:53.401Z,0
2017-12-30T03:31:42.679Z,0
2017-12-30T03:36:51.533Z,0
2017-12-30T03:37:39.803Z,0
2017-12-30T03:38:29.116Z,0
2017-12-30T03:39:17.437Z,0
2017-12-30T03:40:07.789Z,0
2017-12-30T03:40:54.889Z,0
2017-12-30T03:48:39.655Z,0
2017-12-30T03:49:20.243Z,0
2017-12-30T03:50:00.627Z,0
2017-12-30T03:50:41.139Z,0
2017-12-30T03:51:21.608Z,0
2017-12-30T03:52:01.961Z,0
2017-12-30T03:52:42.387Z,0
2017-12-30T03:53:23.208Z,0
2017-12-30T03:54:03.370Z,0
2017-12-30T03:54:43.952Z,0
2017-12-30T03:55:24.941Z,0
2017-12-30T03:56:05.674Z,0
2017-12-30T03:56:46.348Z,0
2017-12-30T03:57:26.765Z,0
2017-12-30T03:58:07.210Z,0
2017-12-30T03:58:48.134Z,0
2017-12-30T03:59:28.498Z,0
2017-12-30T04:00:08.914Z,0
2017-12-30T04:00:49.375Z,0
2017-12-30T04:01:30.296Z,0
2017-12-30T04:43:19.699Z,0
2017-12-30T04:43:57.701Z,0
2017-12-30T04:44:38.597Z,0
2017-12-30T04:45:19.003Z,0
2017-12-30T04:45:59.408Z,0
2017-12-30T04:46:40.641Z,0
2017-12-30T04:47:20.976Z,0
2017-12-30T04:48:01.785Z,0
2017-12-30T04:48:42.148Z,0
2017-12-30T04:49:22.793Z,0
2017-12-30T04:50:03.154Z,0
2017-12-30T04:50:43.817Z,0
2017-12-30T04:51:24.258Z,0
2017-12-30T04:52:05.816Z,0
2017-12-30T04:52:46.369Z,0
2017-12-30T04:53:27.535Z,0
2017-12-30T04:54:07.546Z,0
2017-12-30T04:54:48.614Z,0
2017-12-30T04:55:28.951Z,0
2017-12-30T04:56:09.596Z,0
2017-12-30T04:58:17.813Z,0
2017-12-30T04:58:56.900Z,0
2017-12-30T04:59:37.368Z,0
2017-12-30T05:00:17.699Z,0
2017-12-30T05:00:58.287Z,0
2017-12-30T05:01:38.635Z,0
2017-12-30T05:02:19.788Z,0
2017-12-30T05:03:00.733Z,0
2017-12-30T05:03:42.321Z,0
2017-12-30T05:04:22.845Z,0
2017-12-30T05:05:03.318Z,0
2017-12-30T05:05:44.811Z,0
2017-12-30T05:06:25.126Z,0
2017-12-30T05:07:05.552Z,0
2017-12-30T05:07:46.219Z,0
2017-12-30T05:08:27.298Z,0
2017-12-30T05:09:08.380Z,0
2017-12-30T05:09:50.020Z,0
2017-12-30T05:10:32.573Z,0
2017-12-30T05:11:13.843Z,0
2017-12-30T05:11:56.491Z,0
2017-12-30T05:12:36.882Z,0
2017-12-30T05:13:17.258Z,0
2017-12-30T05:13:58.770Z,0
2017-12-30T05:14:39.328Z,0
2017-12-30T05:15:19.921Z,0
2017-12-30T05:16:01.107Z,0
2017-12-30T05:16:41.891Z,0
2017-12-30T05:17:22.585Z,0
2017-12-30T05:18:02.955Z,0
2017-12-30T05:18:43.363Z,0
2017-12-30T05:19:24.084Z,0
2017-12-30T05:20:04.636Z,0
2017-12-30T05:20:45.752Z,0
2017-12-30T05:21:26.856Z,0
2017-12-30T05:22:07.514Z,0
2017-12-30T05:22:47.937Z,0
2017-12-30T05:23:31.913Z,0
2017-12-30T05:24:12.973Z,0
2017-12-30T05:24:53.530Z,0
2017-12-30T05:25:33.847Z,0
2017-12-30T05:26:14.299Z,0
2017-12-30T05:26:54.755Z,0
2017-12-30T05:27:35.015Z,0
2017-12-30T05:28:15.427Z,0
2017-12-30T05:28:55.876Z,0
2017-12-30T05:29:36.501Z,0
2017-12-30T05:30:16.930Z,0
2017-12-30T05:30:58.394Z,0
2017-12-30T05:31:38.768Z,0
2017-12-30T05:38:42.973Z,0
2017-12-30T05:39:36.036Z,0
2017-12-30T05:41:34.228Z,0
2017-12-30T05:42:13.479Z,0
2017-12-30T05:42:54.314Z,0
2017-12-30T05:43:35.820Z,0
2017-12-30T05:44:16.073Z,0
2017-12-30T05:44:58.456Z,0
2017-12-30T05:45:39.251Z,0
2017-12-30T05:46:19.701Z,0
2017-12-30T05:47:00.352Z,0
2017-12-30T05:47:40.870Z,0
2017-12-30T05:48:21.930Z,0
2017-12-30T05:49:01.799Z,0
2017-12-30T05:49:44.177Z,0
2017-12-30T05:50:25.003Z,0
2017-12-30T05:51:05.272Z,0
2017-12-30T05:51:45.975Z,0
2017-12-30T05:52:26.558Z,0
2017-12-30T05:53:07.824Z,0
2017-12-30T05:53:48.407Z,0
2017-12-30T05:54:29.201Z,0
2017-12-30T05:55:09.487Z,0
2017-12-30T05:55:50.850Z,0
2017-12-30T05:56:31.206Z,0
2017-12-30T05:57:12.359Z,0
2017-12-30T05:57:53.010Z,0
2017-12-30T05:58:33.323Z,0
2017-12-30T05:59:13.810Z,0
2017-12-30T05:59:54.450Z,0
2017-12-30T06:00:34.961Z,0
2017-12-30T06:01:17.446Z,0
2017-12-30T06:01:57.782Z,0
2017-12-30T06:02:39.999Z,0
2017-12-30T06:03:20.728Z,0
2017-12-30T06:04:01.288Z,0
2017-12-30T06:04:42.917Z,0
2017-12-30T06:05:23.143Z,0
2017-12-30T06:06:03.459Z,0
2017-12-30T06:06:44.902Z,0
2017-12-30T06:07:25.414Z,0
2017-12-30T06:08:05.852Z,0
2017-12-30T06:08:46.361Z,0
2017-12-30T06:09:27.232Z,0
2017-12-30T06:10:07.594Z,0
2017-12-30T06:10:48.406Z,0
2017-12-30T06:11:29.366Z,0
2017-12-30T06:12:10.014Z,0
2017-12-30T06:12:50.377Z,0
2017-12-30T06:13:31.260Z,0
2017-12-30T06:14:11.883Z,0
2017-12-30T06:14:52.255Z,0
2017-12-30T06:15:32.563Z,0
2017-12-30T06:16:13.844Z,0
2017-12-30T06:16:55.106Z,0
2017-12-30T06:17:36.545Z,0
2017-12-30T06:18:17.598Z,0
2017-12-30T06:19:00.453Z,0
2017-12-30T06:19:40.455Z,0
2017-12-30T06:20:21.278Z,0
2017-12-30T06:21:01.724Z,0
2017-12-30T06:21:42.910Z,0
2017-12-30T06:22:23.495Z,0
2017-12-30T06:23:04.275Z,0
2017-12-30T06:23:44.858Z,0
2017-12-30T06:24:25.223Z,0
2017-12-30T06:25:06.512Z,0
2017-12-30T06:25:48.074Z,0
2017-12-30T06:26:28.606Z,0
2017-12-30T06:27:10.023Z,0
2017-12-30T06:27:50.318Z,0
2017-12-30T06:28:30.885Z,0
2017-12-30T06:29:11.371Z,0
2017-12-30T06:29:51.860Z,0
2017-12-30T06:30:32.238Z,0
2017-12-30T06:31:13.243Z,0
2017-12-30T06:31:53.771Z,0
2017-12-30T06:32:34.130Z,0
2017-12-30T06:33:16.158Z,0
2017-12-30T06:33:58.128Z,0
2017-12-30T06:34:39.376Z,0
2017-12-30T06:35:19.812Z,0
2017-12-30T06:36:00.252Z,0
2017-12-30T06:36:41.847Z,0
2017-12-30T06:37:22.349Z,0
2017-12-30T06:38:02.995Z,0
2017-12-30T06:38:43.717Z,0
2017-12-30T06:39:24.303Z,0
2017-12-30T06:40:06.674Z,0
2017-12-30T06:40:47.546Z,0
2017-12-30T06:41:28.296Z,0
2017-12-30T06:42:09.327Z,0
2017-12-30T06:42:50.549Z,0
2017-12-30T06:43:30.310Z,0
2017-12-30T06:44:10.657Z,0
2017-12-30T06:44:51.112Z,0
2017-12-30T06:45:32.182Z,0
2017-12-30T06:46:12.868Z,0
2017-12-30T06:46:53.990Z,0
2017-12-30T06:47:40.409Z,0
2017-12-30T06:48:21.749Z,0
2017-12-30T06:49:01.856Z,0
2017-12-30T06:49:46.183Z,0
2017-12-30T06:50:26.529Z,0
2017-12-30T06:51:09.819Z,0
2017-12-30T06:51:51.460Z,0
2017-12-30T06:52:31.725Z,0
2017-12-30T06:53:13.220Z,0
2017-12-30T06:53:53.746Z,0
2017-12-30T06:54:34.580Z,0
2017-12-30T06:55:14.981Z,0
2017-12-30T06:55:56.125Z,0
2017-12-30T06:56:37.381Z,0
2017-12-30T06:57:17.580Z,0
2017-12-30T06:57:58.148Z,0
2017-12-30T06:58:38.919Z,0
2017-12-30T06:59:19.631Z,0
2017-12-30T07:00:00.450Z,0
2017-12-30T07:00:42.195Z,0
2017-12-30T07:01:22.312Z,0
2017-12-30T07:02:03.504Z,0
2017-12-30T07:02:44.008Z,0
2017-12-30T07:03:24.568Z,0
2017-12-30T07:04:04.924Z,0
2017-12-30T07:04:45.938Z,0
2017-12-30T07:05:26.428Z,0
2017-12-30T07:06:07.887Z,0
2017-12-30T07:06:48.777Z,0
2017-12-30T07:07:30.424Z,0
2017-12-30T07:08:11.708Z,0
2017-12-30T07:08:52.919Z,0
2017-12-30T07:09:33.232Z,0
2017-12-30T07:10:13.805Z,0
2017-12-30T07:10:54.421Z,0
2017-12-30T07:11:34.664Z,0
2017-12-30T07:12:15.312Z,0
2017-12-30T07:12:56.140Z,0
2017-12-30T07:13:36.872Z,0
2017-12-30T07:14:18.073Z,0
2017-12-30T07:16:53.881Z,0
2017-12-30T07:17:36.481Z,0
2017-12-30T07:18:17.030Z,0
2017-12-30T07:18:57.563Z,0
2017-12-30T07:19:38.175Z,0
2017-12-30T07:20:18.715Z,0
2017-12-30T07:23:56.979Z,4
2017-12-30T07:24:36.070Z,4
2017-12-30T07:25:17.294Z,4
2017-12-30T07:25:56.936Z,4
2017-12-30T07:26:37.391Z,0
2017-12-30T07:27:18.190Z,4
2017-12-30T07:27:58.410Z,4
2017-12-30T07:28:39.258Z,4
2017-12-30T07:29:19.539Z,4
2017-12-30T07:32:24.973Z,8
2017-12-30T07:33:05.514Z,8
2017-12-30T07:33:46.203Z,8
2017-12-30T07:34:26.746Z,4
2017-12-30T07:35:07.100Z,4
2017-12-30T07:35:47.551Z,4
2017-12-30T07:36:28.265Z,8
2017-12-30T07:37:08.756Z,8
2017-12-30T07:37:49.164Z,8
2017-12-30T07:38:29.935Z,8
2017-12-30T07:39:10.499Z,8
2017-12-30T07:41:47.003Z,8
2017-12-30T07:42:28.164Z,12
2017-12-30T07:43:08.737Z,12
2017-12-30T07:43:52.554Z,8
2017-12-30T07:44:33.136Z,8
2017-12-30T07:45:13.647Z,12
2017-12-30T07:47:31.445Z,12
2017-12-30T07:48:11.730Z,12
2017-12-30T07:48:52.490Z,16
2017-12-30T07:49:32.791Z,16
2017-12-30T07:50:13.168Z,12
2017-12-30T07:50:53.728Z,16
2017-12-30T07:51:34.147Z,16
2017-12-30T07:52:14.650Z,16
2017-12-30T07:52:55.265Z,16
2017-12-30T07:53:35.938Z,16
2017-12-30T07:54:16.365Z,16
2017-12-30T07:54:57.424Z,16
2017-12-30T07:55:37.815Z,16
2017-12-30T07:56:18.215Z,20
2017-12-30T07:56:58.650Z,24
2017-12-30T07:57:39.038Z,28
2017-12-30T07:58:21.777Z,32
2017-12-30T07:59:01.627Z,32
2017-12-30T07:59:42.344Z,32
2017-12-30T08:00:22.901Z,32
2017-12-30T08:01:03.299Z,32
2017-12-30T08:01:43.807Z,32
2017-12-30T08:02:24.245Z,32
2017-12-30T08:03:04.961Z,36
2017-12-30T08:03:45.165Z,36
2017-12-30T08:04:25.635Z,36
2017-12-30T08:05:06.111Z,36
2017-12-30T08:05:47.059Z,40
2017-12-30T08:06:27.373Z,36
2017-12-30T08:07:08.051Z,44
2017-12-30T08:07:48.575Z,44
2017-12-30T08:08:29.292Z,44
2017-12-30T08:09:09.765Z,40
2017-12-30T08:09:50.366Z,40
2017-12-30T08:10:30.804Z,44
2017-12-30T08:11:11.444Z,48
2017-12-30T08:11:52.623Z,48
2017-12-30T08:12:32.726Z,44
2017-12-30T08:13:13.901Z,48
2017-12-30T08:13:54.163Z,52
2017-12-30T08:14:34.776Z,52
2017-12-30T08:15:15.651Z,56
2017-12-30T08:15:56.234Z,56
2017-12-30T08:16:39.711Z,52
2017-12-30T08:17:20.132Z,56
2017-12-30T08:18:01.276Z,52
2017-12-30T08:18:41.385Z,56
2017-12-30T08:19:21.739Z,60
2017-12-30T08:20:02.152Z,64
2017-12-30T08:20:42.628Z,68
2017-12-30T08:21:23.174Z,68
2017-12-30T08:22:03.688Z,68
2017-12-30T08:22:44.441Z,72
2017-12-30T08:23:24.965Z,72
2017-12-30T08:24:10.535Z,68
2017-12-30T08:24:51.105Z,64
2017-12-30T08:25:31.491Z,60
2017-12-30T08:26:12.043Z,64
2017-12-30T08:26:52.636Z,64
2017-12-30T08:27:33.174Z,64
2017-12-30T08:28:14.208Z,60
2017-12-30T08:28:54.734Z,56
2017-12-30T08:29:35.031Z,56
2017-12-30T08:30:15.685Z,56
2017-12-30T08:30:56.607Z,60
2017-12-30T08:31:37.263Z,64
2017-12-30T08:32:17.792Z,68
2017-12-30T08:32:58.619Z,68
2017-12-30T08:33:39.015Z,72
2017-12-30T08:34:19.619Z,72
2017-12-30T08:35:00.097Z,76
2017-12-30T08:35:40.572Z,72
2017-12-30T08:36:22.573Z,80
2017-12-30T08:37:03.134Z,84
2017-12-30T08:37:43.584Z,80
2017-12-30T08:38:24.723Z,80
2017-12-30T08:39:05.305Z,80
2017-12-30T08:39:46.309Z,84
2017-12-30T08:40:26.729Z,92
2017-12-30T08:41:07.235Z,88
2017-12-30T08:41:47.882Z,96
2017-12-30T08:42:28.288Z,96
2017-12-30T08:43:08.725Z,96
2017-12-30T08:43:49.225Z,104
2017-12-30T08:44:29.599Z,96
2017-12-30T08:45:10.662Z,100
2017-12-30T08:45:51.295Z,96
2017-12-30T08:46:33.858Z,92
2017-12-30T08:47:14.497Z,96
2017-12-30T08:47:55.029Z,100
2017-12-30T08:48:35.639Z,92
2017-12-30T08:49:16.412Z,92
2017-12-30T08:49:57.259Z,96
2017-12-30T08:50:38.646Z,100
2017-12-30T08:51:19.316Z,100
2017-12-30T08:51:59.882Z,96
2017-12-30T08:52:41.963Z,112
2017-12-30T08:53:22.587Z,112
2017-12-30T08:54:03.016Z,120
2017-12-30T08:54:43.701Z,120
2017-12-30T08:55:24.776Z,128
2017-12-30T08:56:05.179Z,124
2017-12-30T08:56:46.480Z,120
2017-12-30T08:57:27.583Z,120
2017-12-30T08:58:07.871Z,116
2017-12-30T08:58:48.529Z,124
2017-12-30T08:59:28.904Z,128
2017-12-30T09:00:09.566Z,144
2017-12-30T09:00:50.293Z,156
2017-12-30T09:01:30.725Z,172
2017-12-30T09:02:11.625Z,172
2017-12-30T09:02:51.961Z,168
2017-12-30T09:03:32.888Z,160
2017-12-30T09:04:13.370Z,132
2017-12-30T09:04:54.418Z,116
2017-12-30T09:05:35.155Z,112
2017-12-30T09:06:16.352Z,112
2017-12-30T09:06:57.254Z,104
2017-12-30T09:07:37.583Z,108
2017-12-30T09:08:18.873Z,108
2017-12-30T09:08:59.307Z,108
2017-12-30T09:09:40.217Z,108
2017-12-30T09:10:21.228Z,104
2017-12-30T09:11:01.838Z,108
2017-12-30T09:11:42.471Z,120
2017-12-30T09:12:22.668Z,140
2017-12-30T09:13:03.241Z,160
2017-12-30T09:13:45.693Z,164
2017-12-30T09:14:25.430Z,156
2017-12-30T09:15:06.525Z,148
2017-12-30T09:15:46.974Z,152
2017-12-30T09:16:30.568Z,164
2017-12-30T09:17:11.235Z,164
2017-12-30T09:17:51.741Z,160
2017-12-30T09:18:32.351Z,168
2017-12-30T09:19:13.679Z,168
2017-12-30T09:19:55.761Z,156
2017-12-30T09:20:35.991Z,132
2017-12-30T09:21:16.812Z,128
2017-12-30T09:21:58.112Z,128
2017-12-30T09:22:38.935Z,128
2017-12-30T09:23:19.978Z,112
2017-12-30T09:24:00.657Z,112
2017-12-30T09:24:41.153Z,100
2017-12-30T09:25:24.839Z,100
2017-12-30T09:26:06.353Z,108
2017-12-30T09:26:47.934Z,116
2017-12-30T09:27:28.282Z,136
2017-12-30T09:28:11.163Z,148
2017-12-30T09:28:51.228Z,160
2017-12-30T09:29:31.692Z,164
2017-12-30T09:30:13.135Z,160
2017-12-30T09:30:53.871Z,144
2017-12-30T09:31:35.274Z,136
2017-12-30T09:32:18.407Z,140
2017-12-30T09:32:59.245Z,144
2017-12-30T09:33:39.672Z,144
2017-12-30T09:34:20.131Z,172
2017-12-30T09:35:00.580Z,188
2017-12-30T09:35:40.951Z,212
2017-12-30T09:36:22.642Z,236
2017-12-30T09:37:01.879Z,232
2017-12-30T09:37:42.748Z,212
2017-12-30T09:38:23.438Z,212
2017-12-30T09:39:03.967Z,200
2017-12-30T09:39:44.416Z,204
2017-12-30T09:40:24.718Z,204
2017-12-30T09:41:05.579Z,184
2017-12-30T09:41:45.967Z,164
2017-12-30T09:42:26.477Z,168
2017-12-30T09:43:07.033Z,160
2017-12-30T09:43:47.379Z,168
2017-12-30T09:44:28.246Z,168
2017-12-30T09:45:08.523Z,168
2017-12-30T09:45:49.036Z,168
2017-12-30T09:46:29.391Z,168
2017-12-30T09:47:09.789Z,172
2017-12-30T09:47:50.236Z,172
2017-12-30T09:48:30.693Z,180
2017-12-30T09:49:11.084Z,164
2017-12-30T09:49:51.705Z,148
2017-12-30T09:50:32.046Z,140
2017-12-30T09:51:12.689Z,124
2017-12-30T09:51:53.228Z,132
2017-12-30T09:52:34.281Z,144
2017-12-30T09:53:14.617Z,156
2017-12-30T09:53:55.258Z,176
2017-12-30T09:54:36.007Z,208
2017-12-30T09:55:16.513Z,276
2017-12-30T09:55:56.948Z,292
2017-12-30T09:56:37.596Z,288
2017-12-30T09:57:17.937Z,256
2017-12-30T09:57:58.398Z,216
2017-12-30T09:58:38.840Z,224
2017-12-30T09:59:19.238Z,236
2017-12-30T09:59:59.611Z,216
2017-12-30T10:00:40.520Z,256
2017-12-30T10:01:21.063Z,320
2017-12-30T10:02:01.451Z,404
2017-12-30T10:02:44.837Z,372
2017-12-30T10:46:04.982Z,276
2017-12-30T10:46:45.146Z,240
2017-12-30T10:47:25.838Z,252
2017-12-30T10:48:06.261Z,260
2017-12-30T10:48:46.627Z,280
2017-12-30T10:49:27.070Z,260
2017-12-30T10:50:07.913Z,280
2017-12-30T10:50:48.011Z,308
2017-12-30T10:51:28.684Z,340
2017-12-30T10:52:09.068Z,320
2017-12-30T10:52:49.633Z,316
2017-12-30T10:53:30.191Z,300
2017-12-30T10:54:10.835Z,304
2017-12-30T10:54:51.340Z,300
2017-12-30T10:55:31.726Z,312
2017-12-30T10:56:12.247Z,332
2017-12-30T10:56:52.572Z,360
2017-12-30T10:57:33.056Z,340
2017-12-30T10:58:13.493Z,312
2017-12-30T10:58:53.924Z,308
2017-12-30T10:59:34.388Z,288
2017-12-30T11:00:14.849Z,296
2017-12-30T11:00:55.247Z,308
2017-12-30T11:01:35.836Z,292
2017-12-30T11:02:16.279Z,296
2017-12-30T11:02:56.761Z,324
2017-12-30T11:03:37.241Z,332
2017-12-30T11:04:17.687Z,352
2017-12-30T11:04:58.164Z,380
2017-12-30T11:05:38.726Z,428
2017-12-30T11:06:19.218Z,424
2017-12-30T11:06:59.797Z,460
2017-12-30T11:07:40.172Z,528
2017-12-30T11:08:20.584Z,512
2017-12-30T11:09:01.034Z,476
2017-12-30T11:09:41.406Z,436
2017-12-30T11:10:21.983Z,404
2017-12-30T11:11:02.461Z,400
2017-12-30T11:11:42.926Z,348
2017-12-30T11:12:23.299Z,304
2017-12-30T11:13:03.665Z,308
2017-12-30T11:13:44.117Z,344
2017-12-30T11:14:24.568Z,360
2017-12-30T11:15:04.892Z,368
2017-12-30T11:15:45.356Z,424
2017-12-30T11:16:25.798Z,444
2017-12-30T11:17:06.408Z,468
2017-12-30T11:17:46.810Z,488
2017-12-30T11:18:27.234Z,532
2017-12-30T11:19:07.696Z,508
2017-12-30T11:19:48.202Z,528
2017-12-30T11:20:28.566Z,496
2017-12-30T11:21:08.971Z,536
2017-12-30T11:21:49.413Z,548
2017-12-30T11:22:29.840Z,528
2017-12-30T11:23:10.262Z,508
2017-12-30T11:23:50.677Z,520
2017-12-30T11:24:31.064Z,548
2017-12-30T11:25:11.535Z,580
2017-12-30T11:25:51.927Z,584
2017-12-30T11:26:32.380Z,552
2017-12-30T11:27:12.836Z,524
2017-12-30T11:27:53.274Z,528
2017-12-30T11:28:33.997Z,568
2017-12-30T11:29:14.392Z,580
2017-12-30T11:29:54.987Z,572
2017-12-30T11:30:35.350Z,584
2017-12-30T11:31:15.941Z,608
2017-12-30T11:31:56.377Z,612
2017-12-30T11:32:36.774Z,620
2017-12-30T11:35:09.052Z,672
2017-12-30T11:35:54.637Z,628
2017-12-30T11:36:35.071Z,596
2017-12-30T11:37:15.490Z,564
2017-12-30T11:37:56.088Z,556
2017-12-30T11:38:36.554Z,520
2017-12-30T11:39:17.016Z,528
2017-12-30T11:39:57.541Z,540
2017-12-30T11:40:37.961Z,512
2017-12-30T11:41:18.413Z,468
2017-12-30T11:41:58.762Z,496
2017-12-30T11:42:39.143Z,500
2017-12-30T11:43:19.712Z,492
2017-12-30T11:44:00.053Z,500
2017-12-30T11:44:40.458Z,472
2017-12-30T11:45:21.056Z,452
2017-12-30T11:46:01.429Z,384
2017-12-30T11:46:41.853Z,408
2017-12-30T11:47:22.242Z,392
2017-12-30T11:48:02.715Z,372
2017-12-30T11:48:43.206Z,416
2017-12-30T11:49:23.604Z,448
2017-12-30T11:50:04.026Z,448
2017-12-30T11:50:44.463Z,420
2017-12-30T11:51:24.806Z,424
2017-12-30T11:52:05.240Z,432
2017-12-30T11:52:45.665Z,456
2017-12-30T11:56:08.709Z,448
2017-12-30T11:56:48.241Z,468